Flagstaff Pulliam Airport
KFLG : now visible

Airfield :











YOU CAN JOIN US ON...

 
LOGIN :

Register | Disclaimer

   EN    FR    IT 

 









Legend :    VFR   Marginal VFR   IFR   Intensive IFR   Very Intensive IFR
Visi :
Ceiling :
>= 8 km
>= 3000ft
5 to 8 km
1000 to 3000 ft
1500m to 5 km
500 to 1000 ft
800 to 1500m
200 to 500 ft
< 800m
< 200 ft
Symbols :   Thunderstorms  Fog  Heavy snow  Heavy precipitations  Wind > 20 kt







- Airport Elevation : 7014 ft
- IATA code : FLG


KFLG - Flagstaff Pulliam

CURRENT METAR :
  • 210257Z 22015KT 10SM CLR 12/M05 A2999 RMK AO2 SLP076 T01221050 53003

EXPIRED METARs :
  • 210157Z 22015KT 10SM CLR 14/M04 A2998 RMK AO2 SLP082 T01391044
  • 210057Z 21015G24KT 10SM CLR 16/M04 A2998 RMK AO2 PK WND 20032/0033 SLP094 T01611044

TAF KFLG
Valid from the 21 at 00:00 until the 22 at 00:00 UTC


202324Z 2100/2124 23015G25KT P6SM SCT100 BKN150
FM210300 23011KT P6SM FEW150
FM211500 22015G25KT P6SM SKC
KZAB FIR / North America



MET'MAP, your aeronautical weather chart ! - Copyright ORBIFLY December 2007 - Disclaimer

ORBIFLY MET'MAP TEAM :

Programming & Development : Alexandra Zaïnal
Concept & Development : Baudouin d'Aumeries
Co-Development & Prog : Marc-Olivier Méhu
Technical & hardware support : Manuel Goepfert

Contact : metmap@orbifly.com




SOURCES & CREDITS :

   NOAA       Earth
Advisory